sensor_id;sensor_type;location;lat;lon;timestamp;pressure;altitude;pressure_sealevel;temperature;humidity
40730;BME280;26418;50.070;8.436;2023-03-23T00:01:53;99171.09;;;12.18;63.29
40730;BME280;26418;50.070;8.436;2023-03-23T00:04:19;99176.19;;;12.20;63.60
40730;BME280;26418;50.070;8.436;2023-03-23T00:06:46;99163.16;;;12.13;63.76
40730;BME280;26418;50.070;8.436;2023-03-23T00:09:13;99175.56;;;12.14;63.96
40730;BME280;26418;50.070;8.436;2023-03-23T00:11:41;99181.47;;;12.16;64.14
40730;BME280;26418;50.070;8.436;2023-03-23T00:14:07;99172.09;;;12.14;64.46
40730;BME280;26418;50.070;8.436;2023-03-23T00:16:38;99165.41;;;12.11;64.57
40730;BME280;26418;50.070;8.436;2023-03-23T00:19:10;99172.72;;;12.10;64.70
40730;BME280;26418;50.070;8.436;2023-03-23T00:21:41;99163.22;;;12.04;64.86
40730;BME280;26418;50.070;8.436;2023-03-23T00:24:13;99176.25;;;12.11;65.00
40730;BME280;26418;50.070;8.436;2023-03-23T00:26:41;99172.59;;;12.07;65.16
40730;BME280;26418;50.070;8.436;2023-03-23T00:29:22;99164.00;;;12.05;65.26
40730;BME280;26418;50.070;8.436;2023-03-23T00:31:48;99168.75;;;12.08;65.17
40730;BME280;26418;50.070;8.436;2023-03-23T00:34:19;99170.69;;;12.07;65.31
40730;BME280;26418;50.070;8.436;2023-03-23T00:36:50;99162.56;;;12.07;65.50
40730;BME280;26418;50.070;8.436;2023-03-23T00:39:17;99157.44;;;12.06;65.41
40730;BME280;26418;50.070;8.436;2023-03-23T00:41:43;99150.13;;;12.06;65.57
40730;BME280;26418;50.070;8.436;2023-03-23T00:44:09;99147.72;;;12.05;65.79
40730;BME280;26418;50.070;8.436;2023-03-23T00:46:35;99139.59;;;12.05;65.95
40730;BME280;26418;50.070;8.436;2023-03-23T00:49:11;99135.78;;;12.06;65.77
40730;BME280;26418;50.070;8.436;2023-03-23T00:51:38;99130.81;;;12.08;65.78
40730;BME280;26418;50.070;8.436;2023-03-23T00:54:04;99119.50;;;12.06;65.83
40730;BME280;26418;50.070;8.436;2023-03-23T00:56:30;99144.03;;;12.09;65.66
40730;BME280;26418;50.070;8.436;2023-03-23T00:58:56;99139.16;;;12.03;65.76
40730;BME280;26418;50.070;8.436;2023-03-23T01:01:21;99138.31;;;12.11;65.82
40730;BME280;26418;50.070;8.436;2023-03-23T01:03:47;99139.75;;;12.08;65.64
40730;BME280;26418;50.070;8.436;2023-03-23T01:06:12;99139.91;;;12.12;65.65
40730;BME280;26418;50.070;8.436;2023-03-23T01:08:40;99134.47;;;12.12;65.72
40730;BME280;26418;50.070;8.436;2023-03-23T01:11:15;99130.19;;;12.11;65.24
40730;BME280;26418;50.070;8.436;2023-03-23T01:13:42;99128.59;;;12.10;65.59
40730;BME280;26418;50.070;8.436;2023-03-23T01:16:09;99134.00;;;12.10;65.26
40730;BME280;26418;50.070;8.436;2023-03-23T01:18:35;99135.59;;;12.11;65.67
40730;BME280;26418;50.070;8.436;2023-03-23T01:21:13;99132.41;;;12.09;65.60
40730;BME280;26418;50.070;8.436;2023-03-23T01:23:39;99135.91;;;12.09;65.88
40730;BME280;26418;50.070;8.436;2023-03-23T01:26:07;99137.38;;;12.07;65.34
40730;BME280;26418;50.070;8.436;2023-03-23T01:28:36;99139.44;;;12.10;65.19
40730;BME280;26418;50.070;8.436;2023-03-23T01:31:08;99130.03;;;12.07;64.88
40730;BME280;26418;50.070;8.436;2023-03-23T01:33:34;99134.13;;;12.14;64.91
40730;BME280;26418;50.070;8.436;2023-03-23T01:36:05;99124.53;;;12.16;64.55
40730;BME280;26418;50.070;8.436;2023-03-23T01:38:32;99119.13;;;12.16;64.58
40730;BME280;26418;50.070;8.436;2023-03-23T01:40:58;99117.88;;;12.14;64.62
40730;BME280;26418;50.070;8.436;2023-03-23T01:43:24;99107.25;;;12.08;64.59
40730;BME280;26418;50.070;8.436;2023-03-23T01:45:50;99120.94;;;12.12;64.16
40730;BME280;26418;50.070;8.436;2023-03-23T01:48:27;99114.03;;;12.15;63.86
40730;BME280;26418;50.070;8.436;2023-03-23T01:51:12;99112.72;;;12.21;63.80
40730;BME280;26418;50.070;8.436;2023-03-23T01:53:54;99111.94;;;12.20;64.18
40730;BME280;26418;50.070;8.436;2023-03-23T01:56:23;99109.34;;;12.24;63.80
40730;BME280;26418;50.070;8.436;2023-03-23T01:58:52;99115.41;;;12.21;63.96
40730;BME280;26418;50.070;8.436;2023-03-23T02:01:18;99125.28;;;12.25;63.78
40730;BME280;26418;50.070;8.436;2023-03-23T02:03:47;99126.06;;;12.26;64.03
40730;BME280;26418;50.070;8.436;2023-03-23T02:06:14;99120.84;;;12.21;64.03
40730;BME280;26418;50.070;8.436;2023-03-23T02:08:41;99114.50;;;12.17;63.97
40730;BME280;26418;50.070;8.436;2023-03-23T02:11:16;99116.03;;;12.26;63.83
40730;BME280;26418;50.070;8.436;2023-03-23T02:13:43;99116.16;;;12.30;63.51
40730;BME280;26418;50.070;8.436;2023-03-23T02:29:54;99094.66;;;12.46;62.00
40730;BME280;26418;50.070;8.436;2023-03-23T02:35:28;99093.72;;;12.42;62.04
40730;BME280;26418;50.070;8.436;2023-03-23T02:38:14;99100.59;;;12.39;62.62
40730;BME280;26418;50.070;8.436;2023-03-23T02:40:50;99104.09;;;12.40;63.82
40730;BME280;26418;50.070;8.436;2023-03-23T02:43:20;99113.69;;;12.37;64.96
40730;BME280;26418;50.070;8.436;2023-03-23T02:45:48;99088.44;;;12.24;65.87
40730;BME280;26418;50.070;8.436;2023-03-23T02:48:18;99091.38;;;12.19;67.32
40730;BME280;26418;50.070;8.436;2023-03-23T02:50:47;99073.91;;;12.08;68.15
40730;BME280;26418;50.070;8.436;2023-03-23T02:53:18;99077.44;;;12.08;69.02
40730;BME280;26418;50.070;8.436;2023-03-23T02:55:47;99080.03;;;11.96;69.78
40730;BME280;26418;50.070;8.436;2023-03-23T02:58:13;99083.72;;;11.91;71.30
40730;BME280;26418;50.070;8.436;2023-03-23T03:00:40;99092.19;;;11.90;71.79
40730;BME280;26418;50.070;8.436;2023-03-23T03:03:11;99087.41;;;11.87;72.22
40730;BME280;26418;50.070;8.436;2023-03-23T03:08:41;99074.38;;;11.80;72.91
40730;BME280;26418;50.070;8.436;2023-03-23T03:11:12;99071.88;;;11.75;73.19
40730;BME280;26418;50.070;8.436;2023-03-23T03:19:05;99067.06;;;11.59;74.74
40730;BME280;26418;50.070;8.436;2023-03-23T03:21:38;99064.50;;;11.54;75.12
40730;BME280;26418;50.070;8.436;2023-03-23T03:24:07;99085.72;;;11.52;75.40
40730;BME280;26418;50.070;8.436;2023-03-23T03:26:38;99071.25;;;11.48;75.94
40730;BME280;26418;50.070;8.436;2023-03-23T03:29:05;99070.78;;;11.46;76.17
40730;BME280;26418;50.070;8.436;2023-03-23T03:31:38;99060.94;;;11.41;76.80
40730;BME280;26418;50.070;8.436;2023-03-23T03:34:05;99066.53;;;11.36;76.90
40730;BME280;26418;50.070;8.436;2023-03-23T03:36:33;99071.59;;;11.38;77.17
40730;BME280;26418;50.070;8.436;2023-03-23T03:39:04;99076.72;;;11.39;78.10
40730;BME280;26418;50.070;8.436;2023-03-23T03:41:36;99063.03;;;11.36;78.26
40730;BME280;26418;50.070;8.436;2023-03-23T03:44:04;99059.53;;;11.35;78.10
40730;BME280;26418;50.070;8.436;2023-03-23T03:46:30;99067.00;;;11.38;77.93
40730;BME280;26418;50.070;8.436;2023-03-23T03:48:57;99057.44;;;11.41;77.36
40730;BME280;26418;50.070;8.436;2023-03-23T03:51:24;99059.81;;;11.42;76.98
40730;BME280;26418;50.070;8.436;2023-03-23T03:53:50;99070.78;;;11.46;76.97
40730;BME280;26418;50.070;8.436;2023-03-23T03:56:15;99065.81;;;11.48;77.03
40730;BME280;26418;50.070;8.436;2023-03-23T03:58:42;99070.13;;;11.49;77.06
40730;BME280;26418;50.070;8.436;2023-03-23T04:01:08;99066.63;;;11.48;76.83
40730;BME280;26418;50.070;8.436;2023-03-23T04:03:36;99078.25;;;11.49;76.68
40730;BME280;26418;50.070;8.436;2023-03-23T04:06:02;99070.47;;;11.47;77.34
40730;BME280;26418;50.070;8.436;2023-03-23T04:08:28;99077.00;;;11.46;77.47
40730;BME280;26418;50.070;8.436;2023-03-23T04:10:54;99085.91;;;11.47;77.43
40730;BME280;26418;50.070;8.436;2023-03-23T04:13:20;99074.63;;;11.45;77.75
40730;BME280;26418;50.070;8.436;2023-03-23T04:15:47;99077.97;;;11.42;77.80
40730;BME280;26418;50.070;8.436;2023-03-23T04:18:13;99085.75;;;11.43;77.92
40730;BME280;26418;50.070;8.436;2023-03-23T04:20:46;99088.94;;;11.45;78.31
40730;BME280;26418;50.070;8.436;2023-03-23T04:23:16;99086.56;;;11.44;78.21
40730;BME280;26418;50.070;8.436;2023-03-23T04:25:47;99088.75;;;11.51;77.59
40730;BME280;26418;50.070;8.436;2023-03-23T04:28:14;99101.78;;;11.57;76.30
40730;BME280;26418;50.070;8.436;2023-03-23T04:30:42;99094.59;;;11.61;75.14
40730;BME280;26418;50.070;8.436;2023-03-23T04:33:09;99107.88;;;11.75;74.72
40730;BME280;26418;50.070;8.436;2023-03-23T04:35:40;99101.34;;;11.76;74.64
40730;BME280;26418;50.070;8.436;2023-03-23T04:38:08;99112.00;;;11.82;74.03
40730;BME280;26418;50.070;8.436;2023-03-23T04:40:39;99114.72;;;11.82;74.56
40730;BME280;26418;50.070;8.436;2023-03-23T04:43:05;99111.19;;;11.81;74.35
40730;BME280;26418;50.070;8.436;2023-03-23T04:45:32;99114.72;;;11.82;74.50
40730;BME280;26418;50.070;8.436;2023-03-23T04:47:58;99104.00;;;11.85;73.84
40730;BME280;26418;50.070;8.436;2023-03-23T04:50:29;99114.66;;;11.90;73.85
40730;BME280;26418;50.070;8.436;2023-03-23T04:52:56;99110.16;;;11.94;73.16
40730;BME280;26418;50.070;8.436;2023-03-23T04:55:24;99104.91;;;11.98;72.95
40730;BME280;26418;50.070;8.436;2023-03-23T04:57:50;99102.22;;;11.98;73.67
40730;BME280;26418;50.070;8.436;2023-03-23T05:00:16;99107.13;;;11.96;74.17
40730;BME280;26418;50.070;8.436;2023-03-23T05:02:45;99106.84;;;11.89;75.17
40730;BME280;26418;50.070;8.436;2023-03-23T05:05:17;99096.53;;;11.82;75.22
40730;BME280;26418;50.070;8.436;2023-03-23T05:07:43;99106.59;;;11.82;75.27
40730;BME280;26418;50.070;8.436;2023-03-23T05:10:10;99108.03;;;11.79;75.75
40730;BME280;26418;50.070;8.436;2023-03-23T05:12:37;99107.44;;;11.73;76.02
40730;BME280;26418;50.070;8.436;2023-03-23T05:15:03;99116.69;;;11.72;76.24
40730;BME280;26418;50.070;8.436;2023-03-23T05:17:29;99102.06;;;11.64;76.54
40730;BME280;26418;50.070;8.436;2023-03-23T05:19:56;99110.00;;;11.70;76.32
40730;BME280;26418;50.070;8.436;2023-03-23T05:22:22;99117.03;;;11.71;76.20
40730;BME280;26418;50.070;8.436;2023-03-23T05:24:48;99107.75;;;11.72;76.07
40730;BME280;26418;50.070;8.436;2023-03-23T05:27:17;99112.44;;;11.84;75.81
40730;BME280;26418;50.070;8.436;2023-03-23T05:29:45;99106.25;;;11.83;75.64
40730;BME280;26418;50.070;8.436;2023-03-23T05:32:16;99117.09;;;11.83;76.36
40730;BME280;26418;50.070;8.436;2023-03-23T05:34:42;99114.84;;;11.85;76.18
40730;BME280;26418;50.070;8.436;2023-03-23T05:37:09;99106.03;;;11.88;76.44
40730;BME280;26418;50.070;8.436;2023-03-23T05:39:35;99108.44;;;11.90;76.91
40730;BME280;26418;50.070;8.436;2023-03-23T05:42:02;99116.25;;;11.91;77.02
40730;BME280;26418;50.070;8.436;2023-03-23T05:44:28;99111.94;;;11.90;77.98
40730;BME280;26418;50.070;8.436;2023-03-23T05:46:54;99119.59;;;11.88;78.41
40730;BME280;26418;50.070;8.436;2023-03-23T05:49:20;99105.00;;;11.80;78.91
40730;BME280;26418;50.070;8.436;2023-03-23T05:51:47;99128.41;;;11.85;79.31
40730;BME280;26418;50.070;8.436;2023-03-23T05:54:15;99126.81;;;11.84;79.40
40730;BME280;26418;50.070;8.436;2023-03-23T05:56:40;99149.13;;;11.81;79.54
40730;BME280;26418;50.070;8.436;2023-03-23T05:59:06;99150.38;;;11.84;79.16
40730;BME280;26418;50.070;8.436;2023-03-23T06:01:33;99146.09;;;11.83;79.82
40730;BME280;26418;50.070;8.436;2023-03-23T06:03:59;99133.34;;;11.83;80.00
40730;BME280;26418;50.070;8.436;2023-03-23T06:06:26;99142.59;;;11.82;80.13
40730;BME280;26418;50.070;8.436;2023-03-23T06:08:51;99137.84;;;11.79;80.34
40730;BME280;26418;50.070;8.436;2023-03-23T06:11:17;99140.38;;;11.75;80.59
40730;BME280;26418;50.070;8.436;2023-03-23T06:13:44;99139.59;;;11.75;80.76
40730;BME280;26418;50.070;8.436;2023-03-23T06:16:10;99148.69;;;11.79;80.46
40730;BME280;26418;50.070;8.436;2023-03-23T06:18:36;99143.06;;;11.84;81.32
40730;BME280;26418;50.070;8.436;2023-03-23T06:21:05;99148.63;;;11.88;81.44
40730;BME280;26418;50.070;8.436;2023-03-23T06:23:31;99163.75;;;11.89;81.19
40730;BME280;26418;50.070;8.436;2023-03-23T06:25:59;99154.03;;;11.88;81.85
40730;BME280;26418;50.070;8.436;2023-03-23T06:28:25;99147.38;;;11.85;82.41
40730;BME280;26418;50.070;8.436;2023-03-23T06:30:52;99155.34;;;11.82;83.05
40730;BME280;26418;50.070;8.436;2023-03-23T06:33:18;99163.66;;;11.76;82.91
40730;BME280;26418;50.070;8.436;2023-03-23T06:35:43;99174.31;;;11.82;82.87
40730;BME280;26418;50.070;8.436;2023-03-23T06:38:09;99162.66;;;11.81;82.96
40730;BME280;26418;50.070;8.436;2023-03-23T06:40:35;99178.63;;;11.83;83.17
40730;BME280;26418;50.070;8.436;2023-03-23T06:43:03;99173.06;;;11.79;83.45
40730;BME280;26418;50.070;8.436;2023-03-23T06:45:32;99177.81;;;11.82;83.61
40730;BME280;26418;50.070;8.436;2023-03-23T06:47:58;99169.34;;;11.84;83.37
40730;BME280;26418;50.070;8.436;2023-03-23T06:50:23;99176.84;;;11.87;83.34
40730;BME280;26418;50.070;8.436;2023-03-23T06:52:50;99184.97;;;11.87;83.28
40730;BME280;26418;50.070;8.436;2023-03-23T06:55:17;99160.25;;;11.88;83.37
40730;BME280;26418;50.070;8.436;2023-03-23T06:57:43;99161.53;;;11.91;83.12
40730;BME280;26418;50.070;8.436;2023-03-23T07:00:11;99150.69;;;11.91;83.17
40730;BME280;26418;50.070;8.436;2023-03-23T07:02:39;99155.13;;;11.95;82.98
40730;BME280;26418;50.070;8.436;2023-03-23T07:05:07;99164.53;;;11.98;82.77
40730;BME280;26418;50.070;8.436;2023-03-23T07:07:34;99169.13;;;11.98;83.09
40730;BME280;26418;50.070;8.436;2023-03-23T07:10:01;99168.84;;;11.99;83.23
40730;BME280;26418;50.070;8.436;2023-03-23T07:12:27;99158.81;;;11.91;83.29
40730;BME280;26418;50.070;8.436;2023-03-23T07:14:54;99171.69;;;11.94;83.58
40730;BME280;26418;50.070;8.436;2023-03-23T07:17:20;99189.69;;;11.99;83.71
40730;BME280;26418;50.070;8.436;2023-03-23T07:19:46;99180.47;;;12.00;83.72
40730;BME280;26418;50.070;8.436;2023-03-23T07:22:12;99183.78;;;11.96;83.75
40730;BME280;26418;50.070;8.436;2023-03-23T07:24:37;99179.97;;;11.98;84.19
40730;BME280;26418;50.070;8.436;2023-03-23T07:27:03;99195.47;;;11.97;84.40
40730;BME280;26418;50.070;8.436;2023-03-23T07:29:29;99198.00;;;11.93;84.52
40730;BME280;26418;50.070;8.436;2023-03-23T07:31:54;99196.41;;;11.92;84.61
40730;BME280;26418;50.070;8.436;2023-03-23T07:34:20;99197.88;;;11.90;85.24
40730;BME280;26418;50.070;8.436;2023-03-23T07:36:46;99187.88;;;11.82;85.79
40730;BME280;26418;50.070;8.436;2023-03-23T07:39:15;99186.56;;;11.88;86.15
40730;BME280;26418;50.070;8.436;2023-03-23T07:41:41;99187.94;;;11.94;86.22
40730;BME280;26418;50.070;8.436;2023-03-23T07:44:06;99189.53;;;12.04;85.77
40730;BME280;26418;50.070;8.436;2023-03-23T07:46:32;99184.38;;;12.11;85.77
40730;BME280;26418;50.070;8.436;2023-03-23T07:48:58;99183.41;;;12.16;85.84
40730;BME280;26418;50.070;8.436;2023-03-23T07:51:24;99192.28;;;12.25;85.68
40730;BME280;26418;50.070;8.436;2023-03-23T07:53:50;99194.13;;;12.33;85.19
40730;BME280;26418;50.070;8.436;2023-03-23T07:56:16;99197.53;;;12.42;84.58
40730;BME280;26418;50.070;8.436;2023-03-23T07:58:45;99205.03;;;12.46;84.08
40730;BME280;26418;50.070;8.436;2023-03-23T08:01:11;99208.69;;;12.50;83.82
40730;BME280;26418;50.070;8.436;2023-03-23T08:03:37;99205.13;;;12.58;83.14
40730;BME280;26418;50.070;8.436;2023-03-23T08:06:04;99212.56;;;12.61;83.04
40730;BME280;26418;50.070;8.436;2023-03-23T08:08:31;99222.16;;;12.58;83.07
40730;BME280;26418;50.070;8.436;2023-03-23T08:10:58;99219.59;;;12.62;82.98
40730;BME280;26418;50.070;8.436;2023-03-23T08:13:24;99219.59;;;12.62;83.08
40730;BME280;26418;50.070;8.436;2023-03-23T08:15:50;99221.50;;;12.62;82.38
40730;BME280;26418;50.070;8.436;2023-03-23T08:18:16;99214.16;;;12.62;82.09
40730;BME280;26418;50.070;8.436;2023-03-23T08:20:43;99220.25;;;12.59;82.34
40730;BME280;26418;50.070;8.436;2023-03-23T08:23:10;99224.22;;;12.62;82.26
40730;BME280;26418;50.070;8.436;2023-03-23T08:25:36;99230.56;;;12.66;82.35
40730;BME280;26418;50.070;8.436;2023-03-23T08:28:03;99232.63;;;12.69;81.97
40730;BME280;26418;50.070;8.436;2023-03-23T08:30:29;99232.16;;;12.67;82.04
40730;BME280;26418;50.070;8.436;2023-03-23T08:32:58;99246.19;;;12.69;82.15
40730;BME280;26418;50.070;8.436;2023-03-23T08:35:25;99246.19;;;12.69;82.05
40730;BME280;26418;50.070;8.436;2023-03-23T08:37:51;99250.28;;;12.75;81.91
40730;BME280;26418;50.070;8.436;2023-03-23T08:40:19;99251.09;;;12.76;81.74
40730;BME280;26418;50.070;8.436;2023-03-23T08:42:46;99254.94;;;12.74;81.71
40730;BME280;26418;50.070;8.436;2023-03-23T08:45:17;99253.34;;;12.73;81.71
40730;BME280;26418;50.070;8.436;2023-03-23T08:47:43;99247.22;;;12.77;81.92
40730;BME280;26418;50.070;8.436;2023-03-23T08:50:13;99238.56;;;12.83;81.69
40730;BME280;26418;50.070;8.436;2023-03-23T08:52:39;99231.03;;;12.89;80.96
40730;BME280;26418;50.070;8.436;2023-03-23T08:55:05;99238.06;;;13.02;80.83
40730;BME280;26418;50.070;8.436;2023-03-23T08:57:30;99228.19;;;13.19;80.02
40730;BME280;26418;50.070;8.436;2023-03-23T08:59:56;99229.47;;;13.34;79.57
40730;BME280;26418;50.070;8.436;2023-03-23T09:02:26;99238.13;;;13.48;78.94
40730;BME280;26418;50.070;8.436;2023-03-23T09:04:53;99231.03;;;13.68;78.14
40730;BME280;26418;50.070;8.436;2023-03-23T09:07:19;99227.97;;;13.82;77.10
40730;BME280;26418;50.070;8.436;2023-03-23T09:09:44;99220.31;;;13.97;76.50
40730;BME280;26418;50.070;8.436;2023-03-23T09:12:10;99228.44;;;14.09;75.91
40730;BME280;26418;50.070;8.436;2023-03-23T09:14:38;99227.66;;;14.09;75.43
40730;BME280;26418;50.070;8.436;2023-03-23T09:17:05;99232.84;;;14.14;75.51
40730;BME280;26418;50.070;8.436;2023-03-23T09:19:32;99228.19;;;14.14;74.80
40730;BME280;26418;50.070;8.436;2023-03-23T09:21:59;99223.56;;;14.15;74.88
40730;BME280;26418;50.070;8.436;2023-03-23T09:24:26;99219.94;;;14.23;74.64
40730;BME280;26418;50.070;8.436;2023-03-23T09:26:52;99233.19;;;14.37;74.10
40730;BME280;26418;50.070;8.436;2023-03-23T09:29:18;99237.25;;;14.43;74.22
40730;BME280;26418;50.070;8.436;2023-03-23T09:31:44;99233.69;;;14.55;72.81
40730;BME280;26418;50.070;8.436;2023-03-23T09:34:12;99233.72;;;14.68;72.61
40730;BME280;26418;50.070;8.436;2023-03-23T09:36:38;99225.13;;;14.82;71.68
40730;BME280;26418;50.070;8.436;2023-03-23T09:39:05;99224.44;;;14.85;70.80
40730;BME280;26418;50.070;8.436;2023-03-23T09:55:15;99245.06;;;15.43;62.75
40730;BME280;26418;50.070;8.436;2023-03-23T10:00:29;99241.97;;;15.28;63.19
40730;BME280;26418;50.070;8.436;2023-03-23T10:05:45;99250.06;;;14.96;65.12
40730;BME280;26418;50.070;8.436;2023-03-23T10:08:25;99254.41;;;14.85;66.30
40730;BME280;26418;50.070;8.436;2023-03-23T10:11:01;99267.59;;;14.70;67.12
40730;BME280;26418;50.070;8.436;2023-03-23T10:16:27;99264.09;;;14.45;68.96
40730;BME280;26418;50.070;8.436;2023-03-23T10:19:03;99261.97;;;14.38;69.27
40730;BME280;26418;50.070;8.436;2023-03-23T10:21:35;99279.19;;;14.30;70.52
40730;BME280;26418;50.070;8.436;2023-03-23T10:24:05;99271.03;;;14.18;70.53
40730;BME280;26418;50.070;8.436;2023-03-23T10:29:36;99283.63;;;14.10;70.70
40730;BME280;26418;50.070;8.436;2023-03-23T10:32:14;99281.94;;;14.05;70.35
40730;BME280;26418;50.070;8.436;2023-03-23T10:34:57;99269.91;;;13.94;70.75
40730;BME280;26418;50.070;8.436;2023-03-23T10:37:29;99282.13;;;14.00;70.56
40730;BME280;26418;50.070;8.436;2023-03-23T10:39:59;99273.97;;;14.00;70.49
40730;BME280;26418;50.070;8.436;2023-03-23T10:42:30;99281.66;;;13.98;69.68
40730;BME280;26418;50.070;8.436;2023-03-23T10:44:59;99283.59;;;13.97;70.08
40730;BME280;26418;50.070;8.436;2023-03-23T10:47:25;99273.09;;;13.96;69.16
40730;BME280;26418;50.070;8.436;2023-03-23T10:49:58;99280.44;;;13.95;69.32
40730;BME280;26418;50.070;8.436;2023-03-23T10:52:39;99270.38;;;13.96;69.28
40730;BME280;26418;50.070;8.436;2023-03-23T10:55:09;99270.13;;;14.01;68.97
40730;BME280;26418;50.070;8.436;2023-03-23T10:57:37;99272.75;;;13.97;68.74
40730;BME280;26418;50.070;8.436;2023-03-23T11:00:06;99280.22;;;14.01;69.27
40730;BME280;26418;50.070;8.436;2023-03-23T11:02:40;99275.69;;;14.05;69.37
40730;BME280;26418;50.070;8.436;2023-03-23T11:07:41;99266.06;;;14.20;68.73
40730;BME280;26418;50.070;8.436;2023-03-23T11:10:17;99270.69;;;14.31;68.16
40730;BME280;26418;50.070;8.436;2023-03-23T11:12:46;99263.97;;;14.41;67.56
40730;BME280;26418;50.070;8.436;2023-03-23T11:15:33;99273.38;;;14.56;67.13
40730;BME280;26418;50.070;8.436;2023-03-23T11:20:50;99276.25;;;15.01;65.99
40730;BME280;26418;50.070;8.436;2023-03-23T11:23:42;99275.69;;;15.23;65.09
40730;BME280;26418;50.070;8.436;2023-03-23T11:28:57;99266.06;;;15.58;63.54
40730;BME280;26418;50.070;8.436;2023-03-23T11:31:29;99268.56;;;15.63;62.77
40730;BME280;26418;50.070;8.436;2023-03-23T11:34:03;99266.00;;;15.70;62.58
40730;BME280;26418;50.070;8.436;2023-03-23T11:36:41;99255.13;;;15.70;62.24
40730;BME280;26418;50.070;8.436;2023-03-23T11:39:29;99268.34;;;15.84;62.47
40730;BME280;26418;50.070;8.436;2023-03-23T11:41:59;99271.50;;;16.18;62.70
40730;BME280;26418;50.070;8.436;2023-03-23T11:44:40;99272.59;;;16.69;61.10
40730;BME280;26418;50.070;8.436;2023-03-23T11:47:32;99258.16;;;17.27;60.00
40730;BME280;26418;50.070;8.436;2023-03-23T11:50:04;99261.19;;;17.88;58.56
40730;BME280;26418;50.070;8.436;2023-03-23T11:58:00;99258.50;;;18.15;55.58
40730;BME280;26418;50.070;8.436;2023-03-23T12:00:27;99262.56;;;18.02;56.02
40730;BME280;26418;50.070;8.436;2023-03-23T12:03:00;99253.69;;;17.85;56.51
40730;BME280;26418;50.070;8.436;2023-03-23T12:05:45;99264.88;;;17.76;56.90
40730;BME280;26418;50.070;8.436;2023-03-23T12:14:11;99258.72;;;16.94;58.41
40730;BME280;26418;50.070;8.436;2023-03-23T12:19:45;99257.41;;;16.52;61.03
40730;BME280;26418;50.070;8.436;2023-03-23T12:27:49;99238.28;;;17.07;58.94
40730;BME280;26418;50.070;8.436;2023-03-23T12:33:23;99227.88;;;17.36;58.54
40730;BME280;26418;50.070;8.436;2023-03-23T12:36:16;99213.13;;;17.41;57.93
40730;BME280;26418;50.070;8.436;2023-03-23T12:44:26;99215.06;;;17.64;58.19
40730;BME280;26418;50.070;8.436;2023-03-23T12:47:07;99219.25;;;17.57;56.39
40730;BME280;26418;50.070;8.436;2023-03-23T12:49:36;99221.59;;;17.36;57.58
40730;BME280;26418;50.070;8.436;2023-03-23T12:52:32;99228.63;;;17.13;58.53
40730;BME280;26418;50.070;8.436;2023-03-23T12:55:05;99216.06;;;16.89;59.26
40730;BME280;26418;50.070;8.436;2023-03-23T12:57:35;99230.31;;;16.99;59.89
40730;BME280;26418;50.070;8.436;2023-03-23T13:00:22;99230.25;;;16.95;59.59
40730;BME280;26418;50.070;8.436;2023-03-23T13:03:09;99241.81;;;17.08;59.28
40730;BME280;26418;50.070;8.436;2023-03-23T13:05:49;99253.78;;;17.23;58.14
40730;BME280;26418;50.070;8.436;2023-03-23T13:08:36;99255.38;;;17.24;57.92
40730;BME280;26418;50.070;8.436;2023-03-23T13:11:08;99248.44;;;17.30;58.09
40730;BME280;26418;50.070;8.436;2023-03-23T13:13:59;99226.94;;;17.28;57.71
40730;BME280;26418;50.070;8.436;2023-03-23T13:22:13;99196.13;;;17.28;58.27
40730;BME280;26418;50.070;8.436;2023-03-23T13:24:50;99202.97;;;17.41;58.35
40730;BME280;26418;50.070;8.436;2023-03-23T13:27:17;99207.22;;;17.39;57.62
40730;BME280;26418;50.070;8.436;2023-03-23T13:29:44;99199.75;;;17.36;57.60
40730;BME280;26418;50.070;8.436;2023-03-23T13:32:16;99213.31;;;17.52;57.49
40730;BME280;26418;50.070;8.436;2023-03-23T13:34:43;99218.59;;;17.41;57.38
40730;BME280;26418;50.070;8.436;2023-03-23T13:39:55;99213.06;;;16.94;57.17
40730;BME280;26418;50.070;8.436;2023-03-23T13:42:28;99207.16;;;16.73;57.82
40730;BME280;26418;50.070;8.436;2023-03-23T13:47:38;99214.53;;;16.53;58.95
40730;BME280;26418;50.070;8.436;2023-03-23T13:50:24;99222.06;;;16.40;59.06
40730;BME280;26418;50.070;8.436;2023-03-23T13:52:58;99214.59;;;16.21;59.75
40730;BME280;26418;50.070;8.436;2023-03-23T14:05:37;99210.44;;;15.59;63.00
40730;BME280;26418;50.070;8.436;2023-03-23T14:10:41;99211.75;;;15.49;63.64
40730;BME280;26418;50.070;8.436;2023-03-23T14:16:05;99218.25;;;15.45;64.25
40730;BME280;26418;50.070;8.436;2023-03-23T14:18:41;99208.59;;;15.31;64.64
40730;BME280;26418;50.070;8.436;2023-03-23T14:21:17;99201.59;;;15.18;65.37
40730;BME280;26418;50.070;8.436;2023-03-23T14:23:46;99210.22;;;15.20;65.65
40730;BME280;26418;50.070;8.436;2023-03-23T14:26:16;99211.00;;;15.20;65.34
40730;BME280;26418;50.070;8.436;2023-03-23T14:28:44;99219.47;;;15.31;64.79
40730;BME280;26418;50.070;8.436;2023-03-23T14:31:22;99217.97;;;15.34;64.51
40730;BME280;26418;50.070;8.436;2023-03-23T14:33:50;99213.22;;;15.31;64.45
40730;BME280;26418;50.070;8.436;2023-03-23T14:36:26;99217.09;;;15.30;64.29
40730;BME280;26418;50.070;8.436;2023-03-23T14:42:18;99210.78;;;15.25;63.62
40730;BME280;26418;50.070;8.436;2023-03-23T14:44:48;99207.94;;;15.22;63.10
40730;BME280;26418;50.070;8.436;2023-03-23T14:49:46;99219.97;;;15.21;64.65
40730;BME280;26418;50.070;8.436;2023-03-23T14:52:17;99217.44;;;15.28;65.27
40730;BME280;26418;50.070;8.436;2023-03-23T14:54:44;99211.81;;;15.37;65.66
40730;BME280;26418;50.070;8.436;2023-03-23T14:57:14;99208.34;;;15.52;65.58
40730;BME280;26418;50.070;8.436;2023-03-23T14:59:42;99207.78;;;15.63;65.07
40730;BME280;26418;50.070;8.436;2023-03-23T15:02:18;99197.94;;;15.74;63.72
40730;BME280;26418;50.070;8.436;2023-03-23T15:04:49;99210.06;;;15.77;63.17
40730;BME280;26418;50.070;8.436;2023-03-23T15:07:16;99217.03;;;15.74;63.06
40730;BME280;26418;50.070;8.436;2023-03-23T15:09:44;99210.00;;;15.73;62.93
40730;BME280;26418;50.070;8.436;2023-03-23T15:12:37;99209.47;;;15.67;62.69